Time;durP1;ratioP1;P1;durP2;ratioP2;P2;SDS_P1;SDS_P2;PMS_P1;PMS_P2;Temp;Humidity;BMP_temperature;BMP_pressure;BME280_temperature;BME280_humidity;BME280_pressure;Samples;Min_cycle;Max_cycle;Signal;HPM_P1;HPM_P2
2022/01/15 00:00:38;;;;;;;;;;;;;;;22.41;37.09;102802.38;7281805;19;154338;-50
2022/01/15 00:03:07;;;;;;;;;;;;;;;22.40;37.05;102814.75;7275987;19;153777;-50
2022/01/15 00:05:34;;;;;;;;;;;;;;;22.38;37.10;102806.59;7280070;19;151764;-51
2022/01/15 00:08:03;;;;;;;;;;;;;;;22.36;37.19;102813.63;7276889;19;152033;-50
2022/01/15 00:10:30;;;;;;;;;;;;;;;22.34;37.44;102811.09;7279388;19;154446;-50
2022/01/15 00:12:59;;;;;;;;;;;;;;;22.32;37.11;102813.34;7281163;19;152179;-50
2022/01/15 00:15:30;;;;;;;;;;;;;;;22.30;37.03;102811.94;7281733;19;152741;-50
2022/01/15 00:20:25;;;;;;;;;;;;;;;22.26;37.14;102791.88;7281038;19;153173;-50
2022/01/15 00:22:53;;;;;;;;;;;;;;;22.24;37.28;102793.31;7278838;19;154069;-50
2022/01/15 00:25:21;;;;;;;;;;;;;;;22.21;37.52;102780.63;7280649;19;152126;-50
2022/01/15 00:27:48;;;;;;;;;;;;;;;22.19;37.11;102785.69;7280926;19;153328;-50
2022/01/15 00:30:15;;;;;;;;;;;;;;;22.18;37.31;102789.63;7278924;19;153234;-50
2022/01/15 00:32:42;;;;;;;;;;;;;;;22.17;37.38;102782.28;7281768;19;151726;-50
2022/01/15 00:35:10;;;;;;;;;;;;;;;22.13;37.03;102779.19;7280138;19;153455;-50
2022/01/15 00:37:37;;;;;;;;;;;;;;;22.09;37.15;102778.03;7277956;19;153416;-51
2022/01/15 00:40:05;;;;;;;;;;;;;;;22.07;37.32;102780.28;7288176;19;151839;-50
2022/01/15 00:42:34;;;;;;;;;;;;;;;22.05;37.57;102770.41;7278011;19;153408;-50
2022/01/15 00:45:02;;;;;;;;;;;;;;;22.04;37.55;102768.72;7276374;19;151854;-50
2022/01/15 00:47:31;;;;;;;;;;;;;;;21.98;37.22;102756.59;7280956;19;152626;-51
2022/01/15 00:49:58;;;;;;;;;;;;;;;21.97;37.35;102754.91;7278525;19;153707;-50
2022/01/15 00:52:25;;;;;;;;;;;;;;;21.97;37.19;102759.69;7278146;19;152269;-50
2022/01/15 00:54:52;;;;;;;;;;;;;;;21.93;37.39;102750.94;7279933;19;152454;-51
2022/01/15 00:57:20;;;;;;;;;;;;;;;21.90;37.72;102747.78;7278562;19;152548;-50
2022/01/15 00:59:46;;;;;;;;;;;;;;;21.89;37.63;102743.28;7287328;19;152234;-50
2022/01/15 01:02:14;;;;;;;;;;;;;;;21.85;37.39;102730.91;7278318;19;154024;-50
2022/01/15 01:04:42;;;;;;;;;;;;;;;21.81;37.30;102732.53;7279467;19;152076;-51
2022/01/15 01:07:09;;;;;;;;;;;;;;;21.79;37.53;102741.28;7276876;19;152508;-50
2022/01/15 01:23:14;;;;;;;;;;;;;;;21.53;38.04;102720.56;7283776;19;152643;-50
2022/01/15 01:25:49;;;;;;;;;;;;;;;21.50;37.62;102723.09;7274919;19;153215;-50
2022/01/15 01:28:33;;;;;;;;;;;;;;;21.45;37.69;102711.81;7278200;19;153372;-50
2022/01/15 01:31:09;;;;;;;;;;;;;;;21.39;37.92;102710.94;7277421;19;153311;-51
2022/01/15 01:33:40;;;;;;;;;;;;;;;21.38;38.03;102705.59;7278346;19;153357;-51
2022/01/15 01:36:21;;;;;;;;;;;;;;;21.33;37.97;102697.97;7280035;19;152960;-51
2022/01/15 01:41:18;;;;;;;;;;;;;;;21.29;38.51;102694.84;7283403;19;151968;-50
2022/01/15 01:48:48;;;;;;;;;;;;;;;21.17;38.23;102688.56;7282620;19;152978;-50
2022/01/15 01:51:22;;;;;;;;;;;;;;;21.15;38.30;102682.38;7282005;19;153296;-50
2022/01/15 01:53:49;;;;;;;;;;;;;;;21.11;38.58;102678.41;7281616;19;151853;-50
2022/01/15 01:56:16;;;;;;;;;;;;;;;21.09;38.51;102676.94;7282199;19;153349;-50
2022/01/15 01:58:44;;;;;;;;;;;;;;;21.07;38.98;102673.59;7281286;19;154210;-51
2022/01/15 02:01:11;;;;;;;;;;;;;;;21.04;38.75;102665.66;7280533;19;152049;-50
2022/01/15 02:03:38;;;;;;;;;;;;;;;21.01;38.93;102664.25;7279359;19;152287;-50
2022/01/15 02:06:05;;;;;;;;;;;;;;;20.97;39.09;102665.06;7279595;19;153869;-50
2022/01/15 02:08:36;;;;;;;;;;;;;;;20.93;39.21;102659.16;7288407;19;152430;-51
2022/01/15 02:11:05;;;;;;;;;;;;;;;20.92;39.15;102665.88;7281390;19;153299;-50
2022/01/15 02:13:32;;;;;;;;;;;;;;;20.88;39.65;102670.34;7282438;19;151827;-51
2022/01/15 02:16:00;;;;;;;;;;;;;;;20.84;39.70;102666.38;7281881;19;153207;-51
2022/01/15 02:18:26;;;;;;;;;;;;;;;20.82;39.61;102663.84;7280863;19;153762;-51
2022/01/15 02:23:32;;;;;;;;;;;;;;;20.79;39.93;102667.19;7280263;19;151512;-50
2022/01/15 02:23:51;;;;;;;;;;;;;;;20.76;39.70;102656.47;7280066;19;152607;-50
2022/01/15 02:26:30;;;;;;;;;;;;;;;20.74;39.68;102663.47;7280598;19;153734;-50
2022/01/15 02:29:16;;;;;;;;;;;;;;;20.72;39.66;102654.47;7280810;19;151875;-50
2022/01/15 02:31:54;;;;;;;;;;;;;;;20.67;40.22;102649.66;7294554;19;152249;-50
2022/01/15 02:34:25;;;;;;;;;;;;;;;20.66;39.83;102652.75;7286484;19;151878;-50
2022/01/15 02:36:52;;;;;;;;;;;;;;;20.65;40.29;102646.28;7287987;19;153324;-50
2022/01/15 02:39:20;;;;;;;;;;;;;;;20.62;40.32;102645.97;7282565;19;152633;-50
2022/01/15 02:41:51;;;;;;;;;;;;;;;20.57;40.52;102638.34;7287776;19;152156;-50
2022/01/15 02:44:22;;;;;;;;;;;;;;;20.55;40.39;102643.38;7285823;19;152760;-50
2022/01/15 02:49:25;;;;;;;;;;;;;;;20.52;40.69;102634.66;7286121;19;152238;-50
2022/01/15 02:51:57;;;;;;;;;;;;;;;20.48;40.46;102625.06;7287791;19;152177;-50
2022/01/15 02:54:29;;;;;;;;;;;;;;;20.45;40.48;102622.78;7293687;19;153110;-50
2022/01/15 02:57:06;;;;;;;;;;;;;;;20.43;40.81;102628.69;7286701;19;151921;-51
2022/01/15 02:59:37;;;;;;;;;;;;;;;20.39;41.07;102621.91;7284748;19;152295;-50
2022/01/15 03:02:09;;;;;;;;;;;;;;;20.38;41.02;102617.41;7287394;19;152160;-50
2022/01/15 03:04:38;;;;;;;;;;;;;;;20.34;41.00;102617.09;7284242;19;152206;-51
2022/01/15 03:07:06;;;;;;;;;;;;;;;20.29;41.14;102610.53;7283125;19;153439;-50
2022/01/15 03:09:33;;;;;;;;;;;;;;;20.32;41.27;102610.03;7287293;19;152029;-50
2022/01/15 03:12:12;;;;;;;;;;;;;;;20.30;41.17;102609.47;7287714;19;152668;-50
2022/01/15 03:14:47;;;;;;;;;;;;;;;20.24;41.30;102604.88;7291498;19;152558;-50
2022/01/15 03:17:24;;;;;;;;;;;;;;;20.22;41.16;102601.47;7286232;19;153194;-50
2022/01/15 03:19:54;;;;;;;;;;;;;;;20.21;41.24;102589.44;7285697;19;153326;-50
2022/01/15 03:22:25;;;;;;;;;;;;;;;20.22;41.67;102598.66;7287456;19;151826;-50
2022/01/15 03:25:07;;;;;;;;;;;;;;;20.19;41.24;102594.44;7286452;19;152140;-50
2022/01/15 03:27:41;;;;;;;;;;;;;;;20.16;41.37;102600.59;7285351;19;152685;-51
2022/01/15 03:30:11;;;;;;;;;;;;;;;20.13;41.47;102597.47;7286190;19;151658;-50
2022/01/15 03:32:42;;;;;;;;;;;;;;;20.12;41.90;102591.03;7286948;19;153323;-50
2022/01/15 03:35:15;;;;;;;;;;;;;;;20.11;42.16;102582.88;7282851;19;153190;-50
2022/01/15 03:37:50;;;;;;;;;;;;;;;20.11;42.05;102580.06;7292652;19;152340;-50
2022/01/15 03:40:28;;;;;;;;;;;;;;;20.08;41.91;102572.19;7284447;19;153801;-50
2022/01/15 03:42:55;;;;;;;;;;;;;;;20.06;42.29;102568.78;7284020;19;152594;-50
2022/01/15 03:45:21;;;;;;;;;;;;;;;20.07;42.15;102562.06;7285494;19;153310;-50
2022/01/15 03:47:58;;;;;;;;;;;;;;;20.05;41.91;102565.13;7285086;19;153280;-50
2022/01/15 03:50:41;;;;;;;;;;;;;;;20.02;42.23;102565.66;7284548;19;152661;-50
2022/01/15 03:53:10;;;;;;;;;;;;;;;20.01;42.27;102560.31;7283629;19;153461;-50
2022/01/15 03:55:37;;;;;;;;;;;;;;;20.01;42.22;102563.13;7283728;19;153438;-50
2022/01/15 03:58:04;;;;;;;;;;;;;;;19.96;42.01;102553.53;7285304;19;151974;-50
2022/01/15 04:00:30;;;;;;;;;;;;;;;19.97;42.07;102551.59;7292603;19;153231;-50
2022/01/15 04:02:57;;;;;;;;;;;;;;;19.93;42.50;102548.47;7284082;19;151694;-50
2022/01/15 04:05:24;;;;;;;;;;;;;;;19.94;42.54;102550.13;7284595;19;152520;-50
2022/01/15 04:07:51;;;;;;;;;;;;;;;19.94;42.38;102550.13;7284027;19;154000;-50
2022/01/15 04:10:20;;;;;;;;;;;;;;;19.90;42.43;102534.09;7282712;19;151948;-50
2022/01/15 04:12:56;;;;;;;;;;;;;;;19.86;42.24;102545.00;7285424;19;153158;-51
2022/01/15 04:15:27;;;;;;;;;;;;;;;19.85;42.28;102534.91;7283681;19;153215;-50
2022/01/15 04:18:00;;;;;;;;;;;;;;;19.82;42.41;102555.06;7285719;19;152348;-50
2022/01/15 04:20:32;;;;;;;;;;;;;;;19.80;42.65;102565.72;7284571;19;152902;-50
2022/01/15 04:23:02;;;;;;;;;;;;;;;19.77;42.50;102568.19;7291394;19;152458;-50
2022/01/15 04:25:28;;;;;;;;;;;;;;;19.77;43.03;102569.03;7283991;19;152971;-50
2022/01/15 04:27:59;;;;;;;;;;;;;;;19.73;42.83;102555.81;7282899;19;152656;-51
2022/01/15 04:30:26;;;;;;;;;;;;;;;19.68;43.03;102553.78;7283311;19;152181;-51
2022/01/15 04:32:53;;;;;;;;;;;;;;;19.70;42.71;102562.81;7284490;19;153285;-50
2022/01/15 04:35:19;;;;;;;;;;;;;;;19.69;42.65;102563.06;7283649;19;153716;-51
2022/01/15 04:37:51;;;;;;;;;;;;;;;19.65;42.78;102559.09;7284741;19;152391;-50
2022/01/15 04:40:17;;;;;;;;;;;;;;;19.62;43.28;102556.81;7284342;19;153704;-50
2022/01/15 04:42:44;;;;;;;;;;;;;;;19.60;42.91;102557.06;7282627;19;153513;-51
2022/01/15 04:45:11;;;;;;;;;;;;;;;19.56;42.94;102557.88;7288465;19;152628;-50
2022/01/15 04:47:38;;;;;;;;;;;;;;;19.56;43.17;102550.31;7282505;19;152732;-50
2022/01/15 04:50:07;;;;;;;;;;;;;;;19.52;43.28;102554.75;7282627;19;151726;-50
2022/01/15 04:52:36;;;;;;;;;;;;;;;19.51;43.27;102547.44;7284064;19;152637;-50
2022/01/15 04:55:03;;;;;;;;;;;;;;;19.47;43.44;102554.69;7281197;19;152989;-50
2022/01/15 04:57:30;;;;;;;;;;;;;;;19.46;43.55;102548.22;7282719;19;152096;-50
2022/01/15 04:59:58;;;;;;;;;;;;;;;19.46;43.24;102544.56;7279259;19;151912;-50
2022/01/15 05:02:30;;;;;;;;;;;;;;;19.44;43.42;102544.00;7282685;19;153238;-50
2022/01/15 05:05:00;;;;;;;;;;;;;;;19.43;43.30;102548.75;7281458;19;152210;-50
2022/01/15 05:07:34;;;;;;;;;;;;;;;19.39;43.51;102536.34;7290316;19;151953;-50
2022/01/15 05:10:17;;;;;;;;;;;;;;;19.36;43.45;102533.19;7281788;19;152047;-50
2022/01/15 05:12:48;;;;;;;;;;;;;;;19.32;43.37;102513.25;7283995;19;151806;-50
2022/01/15 05:15:17;;;;;;;;;;;;;;;19.29;43.43;102513.81;7282768;19;153339;-50
2022/01/15 05:17:45;;;;;;;;;;;;;;;19.28;43.58;102505.66;7284273;19;152050;-50
2022/01/15 05:20:12;;;;;;;;;;;;;;;19.26;43.38;102511.50;7282233;19;153021;-50
2022/01/15 05:22:39;;;;;;;;;;;;;;;19.23;43.74;102508.38;7282136;19;152656;-50
2022/01/15 05:25:09;;;;;;;;;;;;;;;19.22;43.43;102501.06;7280771;19;152350;-50
2022/01/15 05:27:39;;;;;;;;;;;;;;;19.20;43.77;102503.31;7290608;19;152763;-50
2022/01/15 05:30:07;;;;;;;;;;;;;;;19.21;43.91;102513.41;7283927;19;152416;-50
2022/01/15 05:32:34;;;;;;;;;;;;;;;19.21;43.82;102510.63;7283009;19;153328;-51
2022/01/15 05:35:01;;;;;;;;;;;;;;;19.16;43.60;102508.59;7281162;19;153784;-51
2022/01/15 05:37:27;;;;;;;;;;;;;;;19.17;43.48;102499.06;7281661;19;151983;-51
2022/01/15 05:39:54;;;;;;;;;;;;;;;19.17;43.86;102487.84;7282260;19;152136;-50
2022/01/15 05:42:21;;;;;;;;;;;;;;;19.15;43.42;102492.03;7279518;19;153946;-50
2022/01/15 05:44:47;;;;;;;;;;;;;;;19.13;43.82;102497.91;7279699;19;152068;-50
2022/01/15 05:47:14;;;;;;;;;;;;;;;19.10;43.86;102493.66;7282739;19;152568;-50
2022/01/15 05:49:41;;;;;;;;;;;;;;;19.08;43.73;102483.81;7288447;19;152476;-50
2022/01/15 05:52:07;;;;;;;;;;;;;;;19.07;43.89;102482.16;7282075;19;152548;-50
2022/01/15 05:54:34;;;;;;;;;;;;;;;19.03;43.86;102490.19;7280827;19;154012;-51
2022/01/15 05:57:01;;;;;;;;;;;;;;;19.04;44.04;102489.09;7281693;19;152566;-51
2022/01/15 05:59:28;;;;;;;;;;;;;;;19.02;43.65;102485.72;7281622;19;154521;-50
2022/01/15 06:01:55;;;;;;;;;;;;;;;19.01;43.96;102485.97;7281628;19;153400;-50
2022/01/15 06:04:21;;;;;;;;;;;;;;;19.00;44.01;102484.28;7281691;19;152192;-50
2022/01/15 06:06:48;;;;;;;;;;;;;;;18.95;43.99;102479.47;7287089;19;152709;-50
2022/01/15 06:09:19;;;;;;;;;;;;;;;18.97;43.54;102482.88;7287520;19;154099;-49
2022/01/15 06:11:46;;;;;;;;;;;;;;;18.99;43.93;102475.03;7296464;19;152337;-50
2022/01/15 06:14:13;;;;;;;;;;;;;;;19.04;43.75;102488.25;7286827;19;153243;-50
2022/01/15 06:16:39;;;;;;;;;;;;;;;19.08;44.21;102486.63;7288304;19;151979;-50
2022/01/15 06:19:06;;;;;;;;;;;;;;;19.09;44.21;102486.38;7287774;19;152235;-51
2022/01/15 06:21:33;;;;;;;;;;;;;;;19.13;44.25;102486.69;7287645;19;154203;-50
2022/01/15 06:24:00;;;;;;;;;;;;;;;19.18;44.38;102494.31;7286135;19;151892;-50
2022/01/15 06:26:26;;;;;;;;;;;;;;;19.21;45.06;102482.59;7288533;19;153253;-50
2022/01/15 06:28:53;;;;;;;;;;;;;;;19.26;45.10;102489.09;7286845;19;152809;-50
2022/01/15 06:31:20;;;;;;;;;;;;;;;19.32;45.07;102484.38;7288308;19;152386;-50
2022/01/15 06:33:46;;;;;;;;;;;;;;;19.36;45.38;102489.22;7295188;19;152648;-50
2022/01/15 06:36:13;;;;;;;;;;;;;;;19.43;45.30;102480.59;7288110;19;151983;-50
2022/01/15 06:38:40;;;;;;;;;;;;;;;19.47;45.61;102471.44;7286465;19;155470;-50
2022/01/15 06:41:06;;;;;;;;;;;;;;;19.54;45.09;102462.81;7287042;19;153261;-50
2022/01/15 06:43:33;;;;;;;;;;;;;;;19.60;45.06;102458.09;7287518;19;151890;-50
2022/01/15 06:46:00;;;;;;;;;;;;;;;19.67;45.13;102453.13;7283688;19;153335;-50
2022/01/15 06:48:29;;;;;;;;;;;;;;;19.72;45.05;102454.00;7286412;19;153269;-50
2022/01/15 06:50:55;;;;;;;;;;;;;;;19.78;44.76;102452.94;7287823;19;152480;-51
2022/01/15 06:53:22;;;;;;;;;;;;;;;19.84;44.95;102440.69;7287938;19;152782;-50
2022/01/15 06:55:52;;;;;;;;;;;;;;;19.91;44.43;102446.03;7289417;19;153260;-51
2022/01/15 06:58:23;;;;;;;;;;;;;;;19.99;44.48;102443.59;7287614;19;153672;-51
2022/01/15 07:00:50;;;;;;;;;;;;;;;20.05;44.46;102446.44;7285390;19;152592;-50
2022/01/15 07:03:17;;;;;;;;;;;;;;;20.11;44.01;102437.81;7284741;19;152346;-51
2022/01/15 07:05:44;;;;;;;;;;;;;;;20.17;44.13;102438.69;7284340;19;153717;-50
2022/01/15 07:08:10;;;;;;;;;;;;;;;20.23;44.57;102438.44;7286301;19;153674;-50
2022/01/15 07:10:39;;;;;;;;;;;;;;;20.29;43.88;102440.19;7286487;19;151846;-50
2022/01/15 07:13:06;;;;;;;;;;;;;;;20.36;43.66;102437.13;7285553;19;152652;-50
2022/01/15 07:15:44;;;;;;;;;;;;;;;20.42;43.97;102427.66;7283402;19;153915;-50
2022/01/15 07:18:33;;;;;;;;;;;;;;;20.48;43.43;102439.75;7291475;19;151969;-50
2022/01/15 07:21:09;;;;;;;;;;;;;;;20.54;43.67;102439.50;7285757;19;152769;-50
2022/01/15 07:23:43;;;;;;;;;;;;;;;20.60;43.40;102435.59;7286907;19;151729;-51
2022/01/15 07:26:13;;;;;;;;;;;;;;;20.65;43.31;102430.03;7284145;19;152522;-51
2022/01/15 07:28:40;;;;;;;;;;;;;;;20.71;43.40;102431.75;7285679;19;153592;-50
2022/01/15 07:31:06;;;;;;;;;;;;;;;20.75;43.00;102435.69;7286390;19;152503;-50
2022/01/15 07:33:33;;;;;;;;;;;;;;;20.81;42.88;102436.53;7283941;19;154216;-51
2022/01/15 07:36:00;;;;;;;;;;;;;;;20.86;43.38;102423.38;7284493;19;153825;-51
2022/01/15 07:38:28;;;;;;;;;;;;;;;20.90;43.00;102426.47;7294365;19;151897;-50
2022/01/15 07:40:57;;;;;;;;;;;;;;;20.96;42.90;102435.78;7283815;19;153164;-50
2022/01/15 07:43:24;;;;;;;;;;;;;;;21.01;43.25;102424.53;7286476;19;152297;-50
2022/01/15 07:45:51;;;;;;;;;;;;;;;21.04;42.82;102419.22;7283914;19;152793;-50
2022/01/15 07:48:21;;;;;;;;;;;;;;;21.10;42.87;102426.56;7283966;19;152422;-50
2022/01/15 07:50:52;;;;;;;;;;;;;;;21.14;43.01;102415.63;7284900;19;152095;-50
2022/01/15 07:53:18;;;;;;;;;;;;;;;21.18;42.81;102423.22;7286691;19;152811;-50
2022/01/15 07:55:45;;;;;;;;;;;;;;;21.23;42.66;102422.41;7284012;19;153245;-50
2022/01/15 07:58:11;;;;;;;;;;;;;;;21.28;42.29;102425.22;7285990;19;151776;-50
2022/01/15 08:00:38;;;;;;;;;;;;;;;21.32;42.34;102419.88;7291970;19;153138;-50
2022/01/15 08:03:06;;;;;;;;;;;;;;;21.36;42.31;102427.47;7285527;19;152042;-50
2022/01/15 08:05:33;;;;;;;;;;;;;;;21.41;41.99;102424.69;7283765;19;152711;-50
2022/01/15 08:08:01;;;;;;;;;;;;;;;21.44;42.38;102426.94;7284461;19;153778;-50
2022/01/15 08:10:35;;;;;;;;;;;;;;;21.50;42.28;102436.22;7283655;19;151683;-50
2022/01/15 08:13:02;;;;;;;;;;;;;;;21.52;42.37;102426.41;7284689;19;153096;-51
2022/01/15 08:15:29;;;;;;;;;;;;;;;21.56;42.20;102433.16;7283113;19;153235;-50
2022/01/15 08:17:55;;;;;;;;;;;;;;;21.60;41.96;102425.00;7284618;19;151825;-50
2022/01/15 08:20:22;;;;;;;;;;;;;;;21.62;41.83;102432.00;7285369;19;153821;-50
2022/01/15 08:22:51;;;;;;;;;;;;;;;21.65;41.89;102437.09;7292012;19;153457;-50
2022/01/15 08:25:18;;;;;;;;;;;;;;;21.68;41.77;102436.53;7281576;19;153095;-51
2022/01/15 08:27:57;;;;;;;;;;;;;;;21.70;41.81;102444.69;7282318;19;153927;-50
2022/01/15 08:30:43;;;;;;;;;;;;;;;21.71;41.82;102441.59;7284350;19;152524;-50
2022/01/15 08:33:15;;;;;;;;;;;;;;;21.72;41.74;102440.47;7284891;19;151866;-50
2022/01/15 08:35:55;;;;;;;;;;;;;;;21.74;41.39;102446.69;7283199;19;152811;-50
2022/01/15 08:38:24;;;;;;;;;;;;;;;21.74;41.49;102454.28;7285249;19;152137;-51
2022/01/15 08:41:07;;;;;;;;;;;;;;;21.73;41.35;102453.41;7284468;19;152045;-50
2022/01/15 08:43:34;;;;;;;;;;;;;;;21.73;41.11;102444.13;7283234;19;153454;-51
2022/01/15 08:46:02;;;;;;;;;;;;;;;21.71;41.19;102449.22;7290493;19;151523;-50
2022/01/15 08:48:29;;;;;;;;;;;;;;;21.71;41.50;102450.03;7283245;19;153264;-50
2022/01/15 08:50:56;;;;;;;;;;;;;;;21.70;41.44;102451.19;7284033;19;152031;-50
2022/01/15 08:53:23;;;;;;;;;;;;;;;21.68;41.37;102442.16;7283972;19;153282;-51
2022/01/15 08:55:50;;;;;;;;;;;;;;;21.67;41.16;102443.28;7282548;19;152496;-50
2022/01/15 08:58:16;;;;;;;;;;;;;;;21.67;41.47;102439.63;7284447;19;151455;-50
2022/01/15 09:00:43;;;;;;;;;;;;;;;21.64;41.34;102435.41;7284360;19;152944;-50
2022/01/15 09:03:10;;;;;;;;;;;;;;;21.63;41.55;102442.16;7283307;19;154132;-50
2022/01/15 09:05:37;;;;;;;;;;;;;;;21.60;41.07;102437.09;7281804;19;151839;-50
2022/01/15 09:08:09;;;;;;;;;;;;;;;21.59;41.49;102437.38;7288054;19;152925;-50
2022/01/15 09:10:41;;;;;;;;;;;;;;;21.55;41.02;102428.66;7282856;19;152067;-51
2022/01/15 09:13:11;;;;;;;;;;;;;;;21.53;41.18;102425.25;7284214;19;152676;-50
2022/01/15 09:15:38;;;;;;;;;;;;;;;21.51;41.06;102418.22;7282703;19;154168;-50
2022/01/15 09:18:10;;;;;;;;;;;;;;;21.49;41.49;102417.66;7283464;19;151818;-50
2022/01/15 09:20:37;;;;;;;;;;;;;;;21.46;41.15;102418.22;7283781;19;153152;-51
2022/01/15 09:23:03;;;;;;;;;;;;;;;21.44;41.24;102418.50;7282240;19;153823;-51
2022/01/15 09:25:30;;;;;;;;;;;;;;;21.43;42.10;102414.03;7282600;19;152419;-50
2022/01/15 09:30:42;;;;;;;;;;;;;;;21.36;41.72;102421.84;7289637;19;151873;-50
2022/01/15 09:33:09;;;;;;;;;;;;;;;21.33;41.91;102421.56;7284643;19;153346;-50
2022/01/15 09:35:37;;;;;;;;;;;;;;;21.29;41.73;102419.34;7282712;19;153608;-50
2022/01/15 09:38:10;;;;;;;;;;;;;;;21.27;41.92;102424.38;7285177;19;152318;-50
2022/01/15 09:40:40;;;;;;;;;;;;;;;21.24;42.28;102418.47;7279977;19;153362;-50
2022/01/15 09:43:14;;;;;;;;;;;;;;;21.22;42.28;102417.88;7282089;19;152748;-51
2022/01/15 09:45:46;;;;;;;;;;;;;;;21.18;42.17;102420.41;7280477;19;151791;-50
2022/01/15 09:48:29;;;;;;;;;;;;;;;21.17;42.47;102418.72;7281897;19;152641;-51
2022/01/15 09:51:15;;;;;;;;;;;;;;;21.15;42.22;102411.69;7285499;19;155156;-50
2022/01/15 09:53:49;;;;;;;;;;;;;;;21.11;42.65;102417.00;7280314;19;152085;-51
2022/01/15 09:56:23;;;;;;;;;;;;;;;21.09;42.48;102415.56;7280023;19;153286;-51
2022/01/15 09:58:54;;;;;;;;;;;;;;;21.07;42.68;102415.88;7281572;19;152209;-50
2022/01/15 10:01:21;;;;;;;;;;;;;;;21.06;43.04;102416.13;7282007;19;154216;-50
2022/01/15 10:03:48;;;;;;;;;;;;;;;21.01;42.77;102399.25;7280480;19;152732;-51
2022/01/15 10:06:14;;;;;;;;;;;;;;;20.98;40.83;102402.63;7280519;19;152410;-52
2022/01/15 10:08:57;;;;;;;;;;;;;;;20.63;40.19;102403.31;7280231;19;152687;-51
2022/01/15 10:11:41;;;;;;;;;;;;;;;20.62;40.52;102404.47;7280794;19;153277;-51
2022/01/15 10:14:27;;;;;;;;;;;;;;;20.59;40.06;102400.22;7289594;19;152297;-52
2022/01/15 10:16:56;;;;;;;;;;;;;;;20.59;40.10;102394.59;7280057;19;153341;-51
2022/01/15 10:19:33;;;;;;;;;;;;;;;20.57;40.03;102388.44;7281480;19;151468;-51
2022/01/15 10:22:09;;;;;;;;;;;;;;;20.57;40.22;102390.38;7281863;19;153489;-52
2022/01/15 10:24:36;;;;;;;;;;;;;;;20.64;40.02;102390.97;7279736;19;154651;-51
2022/01/15 10:27:36;;;;;;;;;;;;;;;20.63;40.25;102369.63;7277915;19;151883;-51
2022/01/15 10:30:03;;;;;;;;;;;;;;;20.63;40.04;102376.06;7277793;19;152646;-51
2022/01/15 10:32:31;;;;;;;;;;;;;;;20.66;40.08;102374.69;7279867;19;153492;-51
2022/01/15 10:34:58;;;;;;;;;;;;;;;20.66;39.84;102367.13;7280280;19;152129;-51
2022/01/15 10:37:27;;;;;;;;;;;;;;;20.71;40.03;102364.34;7287379;19;152709;-51
2022/01/15 10:39:58;;;;;;;;;;;;;;;20.74;39.78;102362.94;7278425;19;151845;-51
2022/01/15 10:42:26;;;;;;;;;;;;;;;20.74;39.73;102360.13;7280458;19;152884;-51
2022/01/15 10:44:54;;;;;;;;;;;;;;;20.78;39.41;102369.69;7275035;19;153970;-51
2022/01/15 10:47:22;;;;;;;;;;;;;;;20.80;39.82;102378.69;7280305;19;153610;-53
2022/01/15 10:49:49;;;;;;;;;;;;;;;20.85;39.35;102376.72;7279610;19;153366;-50
2022/01/15 10:52:21;;;;;;;;;;;;;;;20.95;39.62;102377.88;7286450;19;153182;-50
2022/01/15 10:55:06;;;;;;;;;;;;;;;20.98;39.54;102368.91;7286037;19;151716;-51
2022/01/15 10:57:56;;;;;;;;;;;;;;;21.01;39.52;102366.38;7285448;19;152557;-51
2022/01/15 11:00:40;;;;;;;;;;;;;;;21.03;39.06;102366.94;7288430;19;152788;-51
2022/01/15 11:03:14;;;;;;;;;;;;;;;21.07;39.15;102373.72;7284707;19;151936;-51
2022/01/15 11:05:43;;;;;;;;;;;;;;;21.05;39.17;102361.91;7283959;19;154359;-51
2022/01/15 11:08:22;;;;;;;;;;;;;;;21.04;39.57;102360.19;7287496;19;152724;-51
2022/01/15 11:11:09;;;;;;;;;;;;;;;21.06;39.56;102363.59;7285293;19;151949;-52
2022/01/15 11:13:47;;;;;;;;;;;;;;;21.07;39.09;102364.44;7285068;19;152802;-51
2022/01/15 11:16:27;;;;;;;;;;;;;;;21.11;39.18;102355.19;7284642;19;151649;-51
2022/01/15 11:18:56;;;;;;;;;;;;;;;21.12;38.84;102356.03;7286355;19;153335;-52
2022/01/15 11:21:29;;;;;;;;;;;;;;;21.13;38.73;102352.94;7282654;19;153094;-52
2022/01/15 11:24:02;;;;;;;;;;;;;;;21.15;38.73;102356.34;7293507;19;152114;-51
2022/01/15 11:26:32;;;;;;;;;;;;;;;21.27;38.89;102347.63;7284994;19;153422;-50
2022/01/15 11:28:59;;;;;;;;;;;;;;;21.37;39.03;102349.59;7286529;19;151769;-51
2022/01/15 11:31:29;;;;;;;;;;;;;;;21.44;38.72;102348.19;7286243;19;153348;-50
2022/01/15 11:33:58;;;;;;;;;;;;;;;21.49;38.71;102344.53;7281574;19;154390;-50
2022/01/15 11:36:29;;;;;;;;;;;;;;;21.53;38.79;102343.69;7286835;19;151692;-50
2022/01/15 11:38:57;;;;;;;;;;;;;;;21.57;38.71;102338.38;7284610;19;152176;-51
2022/01/15 11:41:27;;;;;;;;;;;;;;;21.56;38.40;102342.31;7283808;19;154319;-51
2022/01/15 11:43:55;;;;;;;;;;;;;;;21.57;38.28;102341.19;7293302;19;151684;-51
2022/01/15 11:46:30;;;;;;;;;;;;;;;21.55;38.24;102344.28;7284754;19;154187;-51
2022/01/15 11:49:16;;;;;;;;;;;;;;;21.58;38.53;102338.06;7285942;19;153583;-50
2022/01/15 11:51:42;;;;;;;;;;;;;;;21.60;38.27;102341.47;7286191;19;152724;-51
2022/01/15 11:54:12;;;;;;;;;;;;;;;21.60;38.28;102341.47;7285424;19;153283;-50
2022/01/15 11:56:46;;;;;;;;;;;;;;;21.64;37.84;102339.75;7285814;19;151946;-50
2022/01/15 11:59:25;;;;;;;;;;;;;;;21.64;37.78;102331.31;7284535;19;152120;-51
2022/01/15 12:01:53;;;;;;;;;;;;;;;21.66;37.77;102326.28;7283768;19;153294;-51
2022/01/15 12:04:33;;;;;;;;;;;;;;;21.68;37.52;102328.78;7284769;19;152402;-50
2022/01/15 12:07:03;;;;;;;;;;;;;;;21.71;37.75;102323.44;7289010;19;153113;-50
2022/01/15 12:09:41;;;;;;;;;;;;;;;21.71;37.59;102322.63;7285975;19;152305;-50
2022/01/15 12:12:21;;;;;;;;;;;;;;;21.74;37.53;102324.84;7285644;19;152378;-50
2022/01/15 12:14:48;;;;;;;;;;;;;;;21.76;37.50;102318.94;7283092;19;153231;-51
2022/01/15 12:17:32;;;;;;;;;;;;;;;21.77;37.45;102329.91;7285354;19;152199;-51
2022/01/15 12:20:31;;;;;;;;;;;;;;;21.78;37.57;102322.31;7281535;19;153420;-52
2022/01/15 12:23:26;;;;;;;;;;;;;;;21.78;37.01;102323.16;7279167;19;152702;-51
2022/01/15 12:25:58;;;;;;;;;;;;;;;21.80;37.27;102317.25;7280393;19;151787;-50
2022/01/15 12:28:27;;;;;;;;;;;;;;;21.81;36.97;102307.66;7279137;19;154241;-51
2022/01/15 12:30:57;;;;;;;;;;;;;;;21.83;36.94;102313.88;7288315;19;153011;-51
2022/01/15 12:33:30;;;;;;;;;;;;;;;21.82;37.01;102307.38;7282833;19;152515;-50
2022/01/15 12:36:00;;;;;;;;;;;;;;;21.83;36.71;102306.28;7277714;19;153934;-50
2022/01/15 12:38:29;;;;;;;;;;;;;;;21.86;36.57;102299.22;7280022;19;152237;-50
2022/01/15 12:41:06;;;;;;;;;;;;;;;21.88;36.62;102302.59;7280981;19;152256;-51
2022/01/15 12:43:41;;;;;;;;;;;;;;;21.89;36.81;102301.47;7280640;19;152801;-50
2022/01/15 12:46:16;;;;;;;;;;;;;;;21.87;36.88;102296.13;7282141;19;152425;-50
2022/01/15 12:48:44;;;;;;;;;;;;;;;21.92;36.58;102303.72;7279879;19;152391;-50
2022/01/15 12:51:28;;;;;;;;;;;;;;;21.91;36.61;102308.50;7279180;19;154609;-50
2022/01/15 12:53:57;;;;;;;;;;;;;;;21.93;36.38;102303.47;7287221;19;151575;-50
2022/01/15 12:56:45;;;;;;;;;;;;;;;21.94;36.70;102295.88;7278106;19;154682;-50
2022/01/15 12:59:35;;;;;;;;;;;;;;;21.97;36.30;102298.97;7279981;19;151851;-50
2022/01/15 13:02:09;;;;;;;;;;;;;;;21.99;36.29;102305.13;7280373;19;152035;-50
2022/01/15 13:04:39;;;;;;;;;;;;;;;21.99;36.57;102295.84;7280041;19;153248;-50
2022/01/15 13:07:06;;;;;;;;;;;;;;;21.97;36.34;102301.78;7277937;19;152320;-50
2022/01/15 13:09:40;;;;;;;;;;;;;;;22.00;36.56;102303.16;7281322;19;152774;-50
2022/01/15 13:12:11;;;;;;;;;;;;;;;22.02;36.55;102298.09;7277505;19;154414;-51
2022/01/15 13:14:41;;;;;;;;;;;;;;;22.02;36.40;102296.13;7280141;19;151481;-50